Mariner Of The Seas — C6FV9 — position and weather

sailwx.info

Track history (hours):
 
Tides and Currents Weather Stations Pressure Air Temp Water Temp Dewpoint Dewpoint Depression Visibility Wind Speed Wind Dir Waves Ship Positions

Mariner Of The Seas

Operator: Royal Caribbean Cruises Ltd

Last reported at 2015-May-26 07:31 UTC. Time now 2015-May-26 07:36 UTC.
Position N 31°25' E 121°30'.

Type: Passenger vessel. MMSI: 311493000.

Date/timePositionNaut miles runAvg speedWind from/ knotsBaromVisibWave heightAir tempDewpointWater temp
2015-May-26 07:31N 31°25' E 121°30'0 0.0
2015-May-26 06:31N 31°25' E 121°30'0 0.0
2015-May-26 05:31N 31°25' E 121°30'0 0.0
2015-May-26 04:31N 31°25' E 121°30'0 0.0
2015-May-26 03:19N 31°25' E 121°30'0 0.0
2015-May-26 02:31N 31°25' E 121°30'0 0.0
2015-May-26 01:31N 31°25' E 121°30'0 0.0
2015-May-26 00:31N 31°25' E 121°30'0 0.0
2015-May-25 23:25N 31°25' E 121°30'1 0.8
2015-May-25 22:33N 31°25' E 121°31'1111.1
2015-May-25 21:33N 31°20' E 121°42'10 9.8
2015-May-25 20:33N 31°16' E 121°53'1110.9
2015-May-25 19:33N 31°14' E 122°06'1211.9
2015-May-25 18:33N 31°07' E 122°17'1313.1
2015-May-25 17:33N 31°07' E 122°32'1313.3
2015-May-25 16:33N 30°60' E 122°46'1414.4
2015-May-25 15:33N 30°48' E 122°55'1414.1
2015-May-25 14:32N 30°36' E 123°04'1414.3
2015-May-25 13:32N 30°24' E 123°13'1414.2
2015-May-25 12:33N 30°10' E 123°16'1514.6
2015-May-25 11:33N 29°56' E 123°11'1514.5
2015-May-25 10:33N 29°42' E 123°08'1514.6
2015-May-25 09:33N 29°28' E 123°04'1514.5
2015-May-25 08:33N 29°14' E 122°59'1414.4
2015-May-25 07:33N 29°00' E 122°54'  
2015-May-21 16:22N 30°38' E 123°01'1414.3
2015-May-21 15:24N 30°50' E 122°53'2512.3
2015-May-21 13:23N 31°05' E 122°30'1011.6
2015-May-21 12:33N 31°06' E 122°19'1313.4
2015-May-21 11:33N 31°14' E 122°06'1514.9
2015-May-21 10:33N 31°17' E 121°49'1312.9
2015-May-21 09:34N 31°23' E 121°36'5 5.0
2015-May-21 08:33N 31°25' E 121°30'0 0.1
2015-May-21 07:33N 31°25' E 121°30'0 0.1
2015-May-21 06:33N 31°25' E 121°30'0 0.0
2015-May-21 05:27N 31°25' E 121°30'0 0.0
2015-May-21 04:33N 31°25' E 121°30'0 0.1
2015-May-21 03:33N 31°25' E 121°30'0 0.1
2015-May-21 02:33N 31°25' E 121°30'0 0.0
2015-May-21 01:33N 31°25' E 121°30'0 0.0
2015-May-21 00:33N 31°25' E 121°30'0 0.0
2015-May-20 23:33N 31°25' E 121°30'0 0.0
2015-May-20 22:33N 31°25' E 121°30'1 1.3
2015-May-20 21:33N 31°25' E 121°32'9 9.3
2015-May-20 20:33N 31°20' E 121°41'10 9.9
2015-May-20 19:33N 31°16' E 121°52'1212.1
2015-May-20 18:33N 31°14' E 122°06'1211.9
2015-May-20 17:33N 31°07' E 122°17'2912.7
2015-May-20 15:18N 30°56' E 122°48'1215.6
2015-May-20 14:32N 30°48' E 122°58'1716.7
2015-May-20 13:30N 30°32' E 123°07'1717.9
2015-May-20 12:33N 30°18' E 123°17'1616.3
2015-May-20 11:33N 30°02' E 123°14'1716.9
2015-May-20 10:33N 29°46' E 123°10'1717.0
2015-May-20 09:34N 29°29' E 123°05'1616.5
2015-May-20 08:33N 29°13' E 122°59'3214.9
2015-May-20 06:24N 28°43' E 122°48'  
2015-May-16 21:10N 30°07' E 123°16'1217.0
2015-May-16 20:28N 30°18' E 123°17'1617.1
2015-May-16 19:33N 30°32' E 123°07'1717.3
2015-May-16 18:33N 30°47' E 122°58'1717.2
2015-May-16 17:33N 31°01' E 122°45'1515.3
2015-May-16 16:33N 31°06' E 122°29'1515.3
2015-May-16 15:33N 31°10' E 122°11'1413.6
2015-May-16 14:33N 31°15' E 121°57'1212.2
2015-May-16 13:33N 31°19' E 121°43'7 7.4
2015-May-16 12:33N 31°23' E 121°35'5 4.7
2015-May-16 11:29N 31°25' E 121°30'0 0.0
2015-May-16 10:23N 31°25' E 121°30'0 0.0
2015-May-16 09:29N 31°25' E 121°30'0 0.0
2015-May-16 08:29N 31°25' E 121°30'  
Track history (hours):
 
Tides and Currents Weather Stations Pressure Air Temp Water Temp Dewpoint Dewpoint Depression Visibility Wind Speed Wind Dir Waves Ship Positions

Mariner Of The Seas

Operator: Royal Caribbean Cruises Ltd

Last reported at 2015-May-26 07:31 UTC. Time now 2015-May-26 07:36 UTC.
Position N 31°25' E 121°30'.

Type: Passenger vessel. MMSI: 311493000.

Date/timePositionNaut miles runAvg speedWind from/ knotsBaromVisibWave heightAir tempDewpointWater temp
2015-May-26 07:31N 31°25' E 121°30'0 0.0
2015-May-26 06:31N 31°25' E 121°30'0 0.0
2015-May-26 05:31N 31°25' E 121°30'0 0.0
2015-May-26 04:31N 31°25' E 121°30'0 0.0
2015-May-26 03:19N 31°25' E 121°30'0 0.0
2015-May-26 02:31N 31°25' E 121°30'0 0.0
2015-May-26 01:31N 31°25' E 121°30'0 0.0
2015-May-26 00:31N 31°25' E 121°30'0 0.0
2015-May-25 23:25N 31°25' E 121°30'1 0.8
2015-May-25 22:33N 31°25' E 121°31'1111.1
2015-May-25 21:33N 31°20' E 121°42'10 9.8
2015-May-25 20:33N 31°16' E 121°53'1110.9
2015-May-25 19:33N 31°14' E 122°06'1211.9
2015-May-25 18:33N 31°07' E 122°17'1313.1
2015-May-25 17:33N 31°07' E 122°32'1313.3
2015-May-25 16:33N 30°60' E 122°46'1414.4
2015-May-25 15:33N 30°48' E 122°55'1414.1
2015-May-25 14:32N 30°36' E 123°04'1414.3
2015-May-25 13:32N 30°24' E 123°13'1414.2
2015-May-25 12:33N 30°10' E 123°16'1514.6
2015-May-25 11:33N 29°56' E 123°11'1514.5
2015-May-25 10:33N 29°42' E 123°08'1514.6
2015-May-25 09:33N 29°28' E 123°04'1514.5
2015-May-25 08:33N 29°14' E 122°59'1414.4
2015-May-25 07:33N 29°00' E 122°54'  
2015-May-21 16:22N 30°38' E 123°01'1414.3
2015-May-21 15:24N 30°50' E 122°53'2512.3
2015-May-21 13:23N 31°05' E 122°30'1011.6
2015-May-21 12:33N 31°06' E 122°19'1313.4
2015-May-21 11:33N 31°14' E 122°06'1514.9
2015-May-21 10:33N 31°17' E 121°49'1312.9
2015-May-21 09:34N 31°23' E 121°36'5 5.0
2015-May-21 08:33N 31°25' E 121°30'0 0.1
2015-May-21 07:33N 31°25' E 121°30'0 0.1
2015-May-21 06:33N 31°25' E 121°30'0 0.0
2015-May-21 05:27N 31°25' E 121°30'0 0.0
2015-May-21 04:33N 31°25' E 121°30'0 0.1
2015-May-21 03:33N 31°25' E 121°30'0 0.1
2015-May-21 02:33N 31°25' E 121°30'0 0.0
2015-May-21 01:33N 31°25' E 121°30'0 0.0
2015-May-21 00:33N 31°25' E 121°30'0 0.0
2015-May-20 23:33N 31°25' E 121°30'0 0.0
2015-May-20 22:33N 31°25' E 121°30'1 1.3
2015-May-20 21:33N 31°25' E 121°32'9 9.3
2015-May-20 20:33N 31°20' E 121°41'10 9.9
2015-May-20 19:33N 31°16' E 121°52'1212.1
2015-May-20 18:33N 31°14' E 122°06'1211.9
2015-May-20 17:33N 31°07' E 122°17'2912.7
2015-May-20 15:18N 30°56' E 122°48'1215.6
2015-May-20 14:32N 30°48' E 122°58'1716.7
2015-May-20 13:30N 30°32' E 123°07'1717.9
2015-May-20 12:33N 30°18' E 123°17'1616.3
2015-May-20 11:33N 30°02' E 123°14'1716.9
2015-May-20 10:33N 29°46' E 123°10'1717.0
2015-May-20 09:34N 29°29' E 123°05'1616.5
2015-May-20 08:33N 29°13' E 122°59'3214.9
2015-May-20 06:24N 28°43' E 122°48'  
2015-May-16 21:10N 30°07' E 123°16'1217.0
2015-May-16 20:28N 30°18' E 123°17'1617.1
2015-May-16 19:33N 30°32' E 123°07'1717.3
2015-May-16 18:33N 30°47' E 122°58'1717.2
2015-May-16 17:33N 31°01' E 122°45'1515.3
2015-May-16 16:33N 31°06' E 122°29'1515.3
2015-May-16 15:33N 31°10' E 122°11'1413.6
2015-May-16 14:33N 31°15' E 121°57'1212.2
2015-May-16 13:33N 31°19' E 121°43'7 7.4
2015-May-16 12:33N 31°23' E 121°35'5 4.7
2015-May-16 11:29N 31°25' E 121°30'0 0.0
2015-May-16 10:23N 31°25' E 121°30'0 0.0
2015-May-16 09:29N 31°25' E 121°30'0 0.0
2015-May-16 08:29N 31°25' E 121°30'  

Dump ship's entire track history